Time;durP1;ratioP1;P1;durP2;ratioP2;P2;SDS_P1;SDS_P2;PMS_P1;PMS_P2;Temp;Humidity;BMP_temperature;BMP_pressure;BME280_temperature;BME280_humidity;BME280_pressure;Samples;Min_cycle;Max_cycle;Signal;HPM_P1;HPM_P2
2021/01/25 00:03:08;;;;;;;6.38;2.95;;;25.40;90.30;;;;;;6291022;22;20014;-88
2021/01/25 00:05:40;;;;;;;7.75;3.15;;;25.30;90.80;;;;;;6291831;22;19999;-88
2021/01/25 00:08:10;;;;;;;;;;;25.30;90.60;;;;;;6321690;22;20129;-89
2021/01/25 00:13:49;;;;;;;4.32;1.35;;;25.20;91.10;;;;;;6276396;22;20083;-87
2021/01/25 00:16:16;;;;;;;5.13;1.52;;;25.10;90.90;;;;;;6300946;22;20005;-88
2021/01/25 00:18:50;;;;;;;2.25;1.10;;;25.10;91.20;;;;;;6322936;22;19999;-88
2021/01/25 00:21:37;;;;;;;1.80;1.20;;;25.10;91.30;;;;;;6342466;22;20029;-90
2021/01/25 00:24:38;;;;;;;1.95;0.70;;;25.00;91.50;;;;;;6321630;22;20006;-90
2021/01/25 00:27:42;;;;;;;5.35;1.60;;;25.00;91.50;;;;;;6321305;22;19995;-88
2021/01/25 00:30:39;;;;;;;3.78;1.50;;;24.90;91.80;;;;;;6269816;22;20015;-87
2021/01/25 00:33:54;;;;;;;4.20;1.52;;;24.90;92.10;;;;;;6175125;23;20222;-88
2021/01/25 00:36:21;;;;;;;4.07;2.10;;;24.90;92.00;;;;;;6178181;23;20027;-88
2021/01/25 00:39:21;;;;;;;4.40;1.88;;;24.80;92.20;;;;;;6175124;23;20009;-88
2021/01/25 00:42:27;;;;;;;4.38;2.25;;;24.60;92.40;;;;;;6131899;23;20016;-87
2021/01/25 00:48:22;;;;;;;6.00;3.53;;;24.70;92.60;;;;;;6246541;22;20031;-88
2021/01/25 00:51:02;;;;;;;6.53;3.33;;;24.70;92.50;;;;;;6297446;22;19999;-89
2021/01/25 00:54:19;;;;;;;;;;;;;;;;;;;;;
2021/01/25 01:00:10;;;;;;;13.77;5.32;;;24.60;92.70;;;;;;6244037;22;20004;-90
2021/01/25 01:02:45;;;;;;;5.18;3.30;;;24.50;92.90;;;;;;6264545;22;19999;-90
2021/01/25 01:05:16;;;;;;;7.55;2.80;;;24.50;93.00;;;;;;6267534;22;19992;-89
2021/01/25 01:07:45;;;;;;;5.25;2.88;;;24.40;93.00;;;;;;6205070;23;20079;-92
2021/01/25 01:10:24;;;;;;;5.18;2.55;;;24.30;93.20;;;;;;6208107;23;20060;-90
2021/01/25 01:12:55;;;;;;;4.57;2.30;;;24.30;93.20;;;;;;6208107;23;20068;-91
2021/01/25 01:15:25;;;;;;;4.72;2.20;;;24.30;93.10;;;;;;6181903;23;20004;-93
2021/01/25 01:17:59;;;;;;;5.63;2.10;;;24.20;93.20;;;;;;6181676;23;19997;-92
2021/01/25 01:20:26;;;;;;;2.53;1.50;;;24.30;93.20;;;;;;6205112;23;20037;-91
2021/01/25 01:22:52;;;;;;;3.65;1.73;;;24.30;93.10;;;;;;6206125;23;19997;-91
2021/01/25 01:25:22;;;;;;;1.98;1.00;;;24.20;92.90;;;;;;6204470;23;20000;-92
2021/01/25 01:28:08;;;;;;;1.55;1.00;;;24.20;93.00;;;;;;6192584;23;20013;-93
2021/01/25 01:30:39;;;;;;;4.53;0.90;;;24.20;92.90;;;;;;6119758;23;20017;-92
2021/01/25 01:33:36;;;;;;;3.28;1.10;;;24.20;92.90;;;;;;6150495;23;20056;-92
2021/01/25 01:36:27;;;;;;;1.85;1.10;;;24.20;92.70;;;;;;6085195;23;20002;-92
2021/01/25 01:39:00;;;;;;;3.05;1.48;;;24.20;92.60;;;;;;6082865;23;19998;-94
2021/01/25 01:41:39;;;;;;;;;;;24.20;92.80;;;;;;6175802;23;20017;-93
2021/01/25 01:44:13;;;;;;;1.70;0.93;;;24.20;92.60;;;;;;6152386;23;19897;-89
2021/01/25 01:46:52;;;;;;;1.70;1.10;;;24.20;92.70;;;;;;6147008;23;20004;-93
2021/01/25 01:49:29;;;;;;;2.20;0.85;;;24.20;92.60;;;;;;6204541;22;20007;-94
2021/01/25 01:52:00;;;;;;;2.42;0.60;;;24.20;92.60;;;;;;6325363;22;20314;-89
2021/01/25 01:55:01;;;;;;;3.17;0.80;;;24.20;92.60;;;;;;6351135;22;20292;-92
2021/01/25 01:57:35;;;;;;;2.70;1.00;;;24.20;92.40;;;;;;6325122;22;20292;-90
2021/01/25 02:00:24;;;;;;;1.10;0.80;;;24.10;92.40;;;;;;6323079;22;20006;-90
2021/01/25 02:03:13;;;;;;;3.35;1.10;;;24.20;92.30;;;;;;6302341;22;20007;-91
2021/01/25 02:06:12;;;;;;;;;;;;;;;;;;;;;
2021/01/25 02:08:47;;;;;;;3.60;0.98;;;24.20;92.20;;;;;;6328427;22;19992;-93
2021/01/25 02:18:07;;;;;;;2.70;1.10;;;24.20;92.10;;;;;;6218699;22;20003;-91
2021/01/25 02:24:08;;;;;;;1.67;1.10;;;24.10;92.30;;;;;;6330049;22;20122;-90
2021/01/25 02:26:54;;;;;;;3.35;1.40;;;24.10;92.30;;;;;;6328845;22;19999;-93
2021/01/25 02:29:24;;;;;;;2.08;1.15;;;24.10;92.20;;;;;;6326676;22;20003;-92
2021/01/25 02:34:55;;;;;;;2.33;1.30;;;24.20;92.20;;;;;;6262277;22;20062;-91
2021/01/25 02:37:46;;;;;;;5.63;1.23;;;24.20;92.40;;;;;;6323671;22;20021;-92
2021/01/25 02:40:23;;;;;;;2.03;1.10;;;24.10;92.40;;;;;;6330663;22;19999;-91
2021/01/25 02:43:02;;;;;;;3.47;1.45;;;24.10;92.70;;;;;;6323838;22;20037;-90
2021/01/25 02:45:40;;;;;;;3.15;1.05;;;24.00;92.50;;;;;;6325773;22;19999;-91
2021/01/25 02:48:51;;;;;;;3.30;1.02;;;24.10;92.40;;;;;;6327232;22;20007;-90
2021/01/25 02:51:18;;;;;;;2.83;0.80;;;24.10;92.20;;;;;;6267214;22;20244;-90
2021/01/25 02:53:57;;;;;;;4.75;1.20;;;24.10;92.10;;;;;;6292115;22;20027;-90
2021/01/25 02:56:25;;;;;;;3.17;1.30;;;24.10;91.90;;;;;;6292596;22;20000;-91
2021/01/25 02:58:53;;;;;;;3.40;1.45;;;24.10;92.00;;;;;;6273316;22;20004;-89
2021/01/25 03:01:20;;;;;;;4.35;1.27;;;24.10;92.00;;;;;;6293086;22;20162;-91
2021/01/25 03:03:51;;;;;;;1.92;1.40;;;24.10;91.90;;;;;;6290056;22;20051;-91
2021/01/25 03:06:21;;;;;;;3.08;1.83;;;24.10;92.00;;;;;;6290541;22;19991;-91
2021/01/25 03:08:55;;;;;;;5.40;1.60;;;24.10;92.10;;;;;;6291130;22;20213;-90
2021/01/25 03:11:40;;;;;;;3.72;1.23;;;24.00;92.50;;;;;;6259231;22;20016;-92
2021/01/25 03:14:12;;;;;;;2.45;1.25;;;24.00;92.40;;;;;;6261710;23;20220;-90
2021/01/25 03:17:19;;;;;;;2.25;1.23;;;24.00;92.50;;;;;;6263486;22;20012;-91
2021/01/25 03:19:48;;;;;;;5.20;1.35;;;23.90;92.40;;;;;;6241505;22;20000;-94
2021/01/25 03:23:14;;;;;;;1.88;1.25;;;23.90;92.60;;;;;;6265323;22;20008;-90
2021/01/25 03:25:17;;;;;;;1.17;0.98;;;24.00;92.50;;;;;;6247295;23;20004;-91
2021/01/25 03:28:11;;;;;;;2.13;0.98;;;24.00;92.30;;;;;;6237972;23;20059;-91
2021/01/25 03:30:38;;;;;;;3.00;1.30;;;23.90;92.00;;;;;;6265326;22;20074;-91
2021/01/25 03:33:08;;;;;;;4.45;1.20;;;23.90;91.90;;;;;;6242892;22;20013;-90
2021/01/25 03:35:44;;;;;;;2.97;1.50;;;24.00;91.80;;;;;;6237632;22;20080;-91
2021/01/25 03:38:11;;;;;;;1.35;1.00;;;24.00;91.90;;;;;;6237818;23;20016;-91
2021/01/25 03:40:38;;;;;;;2.22;1.00;;;23.90;91.70;;;;;;6258584;22;20000;-90
2021/01/25 03:43:04;;;;;;;1.75;1.08;;;23.80;91.50;;;;;;6280685;22;20050;-91
2021/01/25 03:45:40;;;;;;;2.13;1.50;;;23.90;91.30;;;;;;6290797;22;20000;-91
2021/01/25 03:48:08;;;;;;;1.98;1.05;;;23.90;91.20;;;;;;6290018;22;20061;-91
2021/01/25 03:50:35;;;;;;;3.58;2.38;;;23.90;91.10;;;;;;6304651;22;20007;-91
2021/01/25 03:53:03;;;;;;;15.13;11.48;;;24.00;91.00;;;;;;6293668;22;19996;-90
2021/01/25 03:55:32;;;;;;;21.83;15.43;;;23.90;91.00;;;;;;6319602;22;20280;-91
2021/01/25 03:58:03;;;;;;;18.75;12.10;;;24.00;91.00;;;;;;6319601;22;19991;-92
2021/01/25 04:00:29;;;;;;;16.75;11.05;;;23.90;91.30;;;;;;6321986;22;19995;-91
2021/01/25 04:02:56;;;;;;;14.30;6.57;;;23.90;91.30;;;;;;6323551;22;19992;-91
2021/01/25 04:05:23;;;;;;;21.80;16.08;;;23.90;91.20;;;;;;6318131;22;19995;-92
2021/01/25 04:07:50;;;;;;;20.27;15.30;;;23.90;91.40;;;;;;6318762;22;20009;-91
2021/01/25 04:10:16;;;;;;;14.13;10.38;;;23.90;91.20;;;;;;6319466;22;19991;-91
2021/01/25 04:12:43;;;;;;;12.23;8.77;;;23.80;91.10;;;;;;6319130;22;20009;-91
2021/01/25 04:17:45;;;;;;;9.15;4.18;;;23.80;91.20;;;;;;6341781;22;20025;-91
2021/01/25 04:20:25;;;;;;;3.45;1.92;;;23.80;91.10;;;;;;6349473;22;20006;-92
2021/01/25 04:23:38;;;;;;;2.75;1.58;;;23.80;90.80;;;;;;6319889;22;20007;-90
2021/01/25 04:26:21;;;;;;;1.95;1.30;;;23.90;90.60;;;;;;6354085;22;20028;-91
2021/01/25 04:28:50;;;;;;;4.45;1.35;;;23.90;90.70;;;;;;6354888;22;20295;-91
2021/01/25 04:31:18;;;;;;;2.95;1.48;;;23.80;90.60;;;;;;6300348;22;19994;-92
2021/01/25 04:33:46;;;;;;;2.03;1.27;;;23.90;90.70;;;;;;6350656;22;19998;-92
2021/01/25 04:36:12;;;;;;;1.85;1.20;;;23.90;91.00;;;;;;6325920;22;19994;-92
2021/01/25 04:38:39;;;;;;;3.67;1.20;;;23.90;90.60;;;;;;6325073;22;20058;-92
2021/01/25 04:41:06;;;;;;;1.98;1.10;;;23.90;90.50;;;;;;6327374;22;19999;-92
2021/01/25 04:43:41;;;;;;;3.08;1.40;;;24.00;90.60;;;;;;6356058;22;20013;-92
2021/01/25 04:46:07;;;;;;;2.90;1.10;;;23.90;90.50;;;;;;6325811;22;19990;-92
2021/01/25 04:48:49;;;;;;;2.55;1.00;;;23.90;90.50;;;;;;6324757;22;19999;-92
2021/01/25 04:51:17;;;;;;;3.17;1.17;;;23.90;90.50;;;;;;6326375;22;19994;-91
2021/01/25 04:53:44;;;;;;;2.95;1.05;;;23.90;90.60;;;;;;6331071;22;19987;-92
2021/01/25 04:56:13;;;;;;;1.80;1.48;;;23.90;90.60;;;;;;6323375;22;20022;-91
2021/01/25 04:58:42;;;;;;;2.85;1.40;;;23.90;90.80;;;;;;6331165;22;20003;-91
2021/01/25 05:01:09;;;;;;;3.10;1.17;;;23.90;90.70;;;;;;6323027;22;19998;-92
2021/01/25 05:03:39;;;;;;;5.32;1.20;;;23.90;90.60;;;;;;6323892;22;20003;-92
2021/01/25 05:06:39;;;;;;;1.45;1.02;;;23.90;90.60;;;;;;6297267;22;20002;-92
2021/01/25 05:09:51;;;;;;;3.45;1.33;;;23.90;90.80;;;;;;6193650;23;20020;-92
2021/01/25 05:13:13;;;;;;;3.47;1.20;;;23.80;90.80;;;;;;6077366;23;20007;-92
2021/01/25 05:16:25;;;;;;;1.83;1.30;;;23.80;90.80;;;;;;6053579;23;20321;-93
2021/01/25 05:25:39;;;;;;;2.83;0.93;;;23.80;91.00;;;;;;6288412;22;20014;-93
2021/01/25 05:28:17;;;;;;;2.65;1.80;;;23.70;91.20;;;;;;6286851;22;20004;-93
2021/01/25 05:30:44;;;;;;;2.97;0.93;;;23.70;91.00;;;;;;6261327;22;20003;-92
2021/01/25 05:33:11;;;;;;;3.42;1.20;;;23.70;91.30;;;;;;6261044;22;19996;-94
2021/01/25 05:35:38;;;;;;;2.33;1.15;;;23.80;91.30;;;;;;6260327;22;20023;-93
2021/01/25 05:38:07;;;;;;;3.10;1.38;;;23.80;91.10;;;;;;6261109;22;20030;-93
2021/01/25 05:40:36;;;;;;;2.03;1.13;;;23.70;91.00;;;;;;6261053;22;20178;-92
2021/01/25 05:43:12;;;;;;;3.92;1.10;;;23.80;91.10;;;;;;6261095;22;20015;-91
2021/01/25 05:45:39;;;;;;;2.33;1.30;;;23.70;91.00;;;;;;6260753;22;20023;-92
2021/01/25 05:48:06;;;;;;;2.10;1.17;;;23.80;91.10;;;;;;6262522;22;20219;-93
2021/01/25 05:50:40;;;;;;;3.80;1.30;;;23.80;91.10;;;;;;6265874;22;20180;-93
2021/01/25 05:53:10;;;;;;;3.22;1.40;;;23.80;91.10;;;;;;6263628;22;20302;-93
2021/01/25 05:55:38;;;;;;;3.60;1.10;;;23.80;90.90;;;;;;6262332;22;19996;-93
2021/01/25 05:58:05;;;;;;;2.30;1.27;;;23.80;91.00;;;;;;6260899;22;20058;-93
2021/01/25 06:00:33;;;;;;;2.75;1.27;;;23.80;91.00;;;;;;6261344;22;20023;-93
2021/01/25 06:03:05;;;;;;;2.70;1.33;;;23.80;90.80;;;;;;6261367;22;20003;-93
2021/01/25 06:05:33;;;;;;;3.72;1.42;;;23.80;90.60;;;;;;6261292;22;20006;-93
2021/01/25 06:08:25;;;;;;;1.90;1.00;;;23.80;90.70;;;;;;6261169;22;20008;-93
2021/01/25 06:11:06;;;;;;;4.38;1.10;;;23.90;90.60;;;;;;6265198;22;20022;-94
2021/01/25 06:13:45;;;;;;;4.90;1.20;;;23.90;90.50;;;;;;6263097;22;20063;-93
2021/01/25 06:16:12;;;;;;;2.38;1.27;;;23.90;90.50;;;;;;6265135;22;20051;-93
2021/01/25 06:18:45;;;;;;;3.55;1.13;;;23.90;90.40;;;;;;6263401;22;20003;-92
2021/01/25 06:21:14;;;;;;;3.33;1.38;;;23.90;90.50;;;;;;6275543;22;20015;-92
2021/01/25 06:23:43;;;;;;;2.75;1.08;;;23.90;90.40;;;;;;6288844;22;19991;-93
2021/01/25 06:26:10;;;;;;;1.58;1.00;;;23.90;90.50;;;;;;6290306;22;19996;-92
2021/01/25 06:28:36;;;;;;;2.47;0.90;;;23.90;90.30;;;;;;6288351;22;19991;-91
2021/01/25 06:31:05;;;;;;;3.10;1.40;;;23.90;90.30;;;;;;6288414;22;20073;-91
2021/01/25 06:33:38;;;;;;;1.90;0.98;;;23.90;90.30;;;;;;6287678;22;19996;-91
2021/01/25 06:36:08;;;;;;;3.80;1.58;;;23.90;90.10;;;;;;6289745;22;20023;-91
2021/01/25 06:38:36;;;;;;;2.42;1.02;;;23.90;90.30;;;;;;6287762;22;20000;-90
2021/01/25 06:41:13;;;;;;;3.08;1.48;;;23.90;90.30;;;;;;6289523;22;20334;-92
2021/01/25 06:43:41;;;;;;;1.20;0.95;;;24.00;90.30;;;;;;6288282;22;19999;-92
2021/01/25 06:46:09;;;;;;;2.75;1.23;;;24.00;90.20;;;;;;6289632;22;20018;-92
2021/01/25 06:48:37;;;;;;;2.97;1.10;;;24.00;90.30;;;;;;6289352;22;19983;-92
2021/01/25 06:51:06;;;;;;;3.78;1.00;;;24.00;90.30;;;;;;6287593;22;20004;-92
2021/01/25 06:53:35;;;;;;;3.30;1.27;;;24.10;90.30;;;;;;6290355;22;20284;-91
2021/01/25 06:56:05;;;;;;;2.50;0.98;;;24.00;90.20;;;;;;6290151;22;20022;-92
2021/01/25 06:58:33;;;;;;;3.03;1.23;;;24.10;90.20;;;;;;6290467;22;20003;-92
2021/01/25 07:04:15;;;;;;;2.25;1.02;;;24.10;90.50;;;;;;6312146;22;20293;-92
2021/01/25 07:06:48;;;;;;;3.88;1.17;;;24.10;90.30;;;;;;6288758;22;20223;-91
2021/01/25 07:09:33;;;;;;;2.55;1.30;;;24.10;90.30;;;;;;6292987;22;19988;-91
2021/01/25 07:12:02;;;;;;;3.80;1.45;;;24.10;90.40;;;;;;6292940;22;20069;-92
2021/01/25 07:14:31;;;;;;;1.88;1.05;;;24.10;90.30;;;;;;6288219;22;20183;-92
2021/01/25 07:16:59;;;;;;;5.07;1.90;;;24.20;90.40;;;;;;6289559;22;20078;-92
2021/01/25 07:19:26;;;;;;;4.03;1.13;;;24.20;90.40;;;;;;6289696;22;20018;-92
2021/01/25 07:21:54;;;;;;;4.13;1.52;;;24.20;90.30;;;;;;6288408;22;20022;-92
2021/01/25 07:24:22;;;;;;;2.17;1.23;;;24.20;90.40;;;;;;6290255;22;19995;-92
2021/01/25 07:27:12;;;;;;;2.90;1.38;;;24.10;90.60;;;;;;6288381;22;20023;-92
2021/01/25 07:29:38;;;;;;;3.25;1.02;;;24.10;90.70;;;;;;6276664;22;19992;-92
2021/01/25 07:32:05;;;;;;;3.38;1.17;;;24.10;90.60;;;;;;6289277;22;20223;-91
2021/01/25 07:34:47;;;;;;;1.85;1.20;;;24.20;90.20;;;;;;6293418;22;19984;-92
2021/01/25 07:37:17;;;;;;;2.35;1.10;;;24.10;90.20;;;;;;6302846;22;20023;-91
2021/01/25 07:39:51;;;;;;;3.97;1.13;;;24.20;90.20;;;;;;6299898;22;20176;-92
2021/01/25 07:42:19;;;;;;;3.70;0.98;;;24.20;90.00;;;;;;6292570;22;20004;-92
2021/01/25 07:44:46;;;;;;;5.07;1.17;;;24.20;90.00;;;;;;6292922;22;20040;-92
2021/01/25 07:47:13;;;;;;;2.03;1.33;;;24.20;89.40;;;;;;6289735;22;20030;-92
2021/01/25 07:49:40;;;;;;;5.50;2.15;;;24.20;90.00;;;;;;6288714;22;20165;-91
2021/01/25 07:52:16;;;;;;;3.03;1.00;;;24.20;89.60;;;;;;6290155;22;20019;-92
2021/01/25 07:54:47;;;;;;;2.42;0.90;;;24.20;90.10;;;;;;6287516;22;19992;-93
2021/01/25 07:57:23;;;;;;;2.30;0.90;;;24.10;90.10;;;;;;6287337;22;20003;-92
2021/01/25 07:59:50;;;;;;;2.60;1.10;;;24.10;90.40;;;;;;6288569;22;20033;-91
2021/01/25 08:02:17;;;;;;;2.53;1.10;;;24.10;90.00;;;;;;6287449;22;20010;-91
2021/01/25 08:04:45;;;;;;;2.08;1.00;;;24.10;90.00;;;;;;6289685;22;20014;-90
2021/01/25 08:07:14;;;;;;;2.83;1.10;;;24.20;89.90;;;;;;6287978;22;20000;-91
2021/01/25 08:09:43;;;;;;;1.33;1.00;;;24.20;89.80;;;;;;6286955;22;20466;-90
2021/01/25 08:12:11;;;;;;;2.08;1.17;;;24.20;89.60;;;;;;6287038;22;20280;-91
2021/01/25 08:15:04;;;;;;;3.42;1.00;;;24.20;90.00;;;;;;6287131;22;19998;-90
2021/01/25 08:17:36;;;;;;;3.05;1.00;;;24.10;89.80;;;;;;6288611;22;19996;-91
2021/01/25 08:20:15;;;;;;;2.30;1.00;;;24.10;89.70;;;;;;6289676;22;19992;-91
2021/01/25 08:23:04;;;;;;;1.92;1.02;;;24.10;89.80;;;;;;6291998;22;20070;-90
2021/01/25 08:25:31;;;;;;;2.80;0.90;;;24.20;90.00;;;;;;6319340;22;20046;-91
2021/01/25 08:28:15;;;;;;;2.72;1.10;;;24.20;90.10;;;;;;6292117;22;19999;-91
2021/01/25 08:30:46;;;;;;;1.30;0.88;;;24.20;89.90;;;;;;6291836;22;20029;-91
2021/01/25 08:33:25;;;;;;;2.38;1.45;;;24.20;89.80;;;;;;6292044;22;20054;-92
2021/01/25 08:35:56;;;;;;;2.65;1.08;;;24.20;90.00;;;;;;6318755;22;19987;-92
2021/01/25 08:38:40;;;;;;;3.17;1.17;;;24.20;89.80;;;;;;6295598;22;20006;-90
2021/01/25 08:41:28;;;;;;;1.70;0.93;;;24.20;89.90;;;;;;6294535;22;20284;-91
2021/01/25 08:43:59;;;;;;;2.70;1.00;;;24.20;90.20;;;;;;6319119;22;20002;-91
2021/01/25 08:46:33;;;;;;;2.58;1.17;;;24.20;90.10;;;;;;6291769;22;19991;-91
2021/01/25 08:49:21;;;;;;;4.22;1.40;;;24.10;90.10;;;;;;6291242;22;20015;-90
2021/01/25 08:52:03;;;;;;;2.85;1.08;;;24.10;90.40;;;;;;6291427;22;20056;-91
2021/01/25 08:54:35;;;;;;;1.67;1.20;;;24.20;90.30;;;;;;6291437;22;19995;-92
2021/01/25 08:57:14;;;;;;;2.15;1.20;;;24.20;90.30;;;;;;6318388;22;19999;-91
2021/01/25 08:59:43;;;;;;;3.85;1.15;;;24.20;90.40;;;;;;6292095;22;19991;-91
2021/01/25 09:02:16;;;;;;;3.08;1.27;;;24.20;90.30;;;;;;6291498;22;20284;-91
2021/01/25 09:04:42;;;;;;;1.48;1.30;;;24.20;90.40;;;;;;6291299;22;19991;-91
2021/01/25 09:07:13;;;;;;;6.82;1.25;;;24.20;90.40;;;;;;6318937;22;19995;-92
2021/01/25 09:09:41;;;;;;;2.78;1.35;;;24.20;90.40;;;;;;6318924;22;19983;-91
2021/01/25 09:12:08;;;;;;;2.90;1.20;;;24.20;90.50;;;;;;6291850;22;20006;-91
2021/01/25 09:14:36;;;;;;;2.15;1.10;;;24.20;90.60;;;;;;6291970;22;19998;-90
2021/01/25 09:17:03;;;;;;;2.40;1.00;;;24.20;90.60;;;;;;6318302;22;20045;-90
2021/01/25 09:19:29;;;;;;;3.72;1.50;;;24.20;90.70;;;;;;6319128;22;20357;-91
2021/01/25 09:21:56;;;;;;;2.90;1.20;;;24.30;90.70;;;;;;6286194;22;20046;-91
2021/01/25 09:24:23;;;;;;;3.17;1.17;;;24.30;90.80;;;;;;6285943;22;20018;-91
2021/01/25 09:26:50;;;;;;;3.35;1.20;;;24.30;90.70;;;;;;6287502;22;20284;-91
2021/01/25 09:29:17;;;;;;;3.65;1.33;;;24.30;90.80;;;;;;6286048;22;19992;-90
2021/01/25 09:31:43;;;;;;;3.78;1.30;;;24.30;91.00;;;;;;6287227;22;19991;-92
2021/01/25 09:34:11;;;;;;;2.13;1.02;;;24.30;90.70;;;;;;6286011;22;19996;-91
2021/01/25 09:36:38;;;;;;;3.55;1.35;;;24.30;90.80;;;;;;6286147;22;19996;-91
2021/01/25 09:39:06;;;;;;;4.30;1.08;;;24.30;90.70;;;;;;6286337;22;20020;-91
2021/01/25 09:41:33;;;;;;;2.63;1.15;;;24.30;90.70;;;;;;6285655;22;19996;-90
2021/01/25 09:44:00;;;;;;;2.75;1.27;;;24.30;90.80;;;;;;6286247;22;20015;-91
2021/01/25 09:46:26;;;;;;;1.48;1.10;;;24.30;90.80;;;;;;6287117;22;19988;-91
2021/01/25 09:48:53;;;;;;;1.98;1.48;;;24.30;91.00;;;;;;6287970;22;19995;-91
2021/01/25 09:51:20;;;;;;;4.65;1.50;;;24.30;90.80;;;;;;6289240;22;20181;-91
2021/01/25 09:53:46;;;;;;;2.40;1.50;;;24.30;90.60;;;;;;6288072;22;20011;-90
2021/01/25 09:56:16;;;;;;;3.33;1.20;;;24.30;90.80;;;;;;6288350;22;20059;-91
2021/01/25 09:58:43;;;;;;;2.95;1.27;;;24.30;90.60;;;;;;6288103;22;20054;-91
2021/01/25 10:01:09;;;;;;;4.07;1.40;;;24.30;90.50;;;;;;6289478;22;19996;-91
2021/01/25 10:03:36;;;;;;;2.47;1.33;;;24.30;90.50;;;;;;6288565;22;20272;-91
2021/01/25 10:06:02;;;;;;;3.20;1.33;;;24.30;90.70;;;;;;6289336;22;19995;-91
2021/01/25 10:08:29;;;;;;;2.80;1.33;;;24.30;90.80;;;;;;6288252;22;20019;-91
2021/01/25 10:10:59;;;;;;;5.88;1.42;;;24.30;90.90;;;;;;6288467;22;19995;-91
2021/01/25 10:13:25;;;;;;;2.30;1.02;;;24.30;90.90;;;;;;6287933;22;19995;-90
2021/01/25 10:15:52;;;;;;;5.47;1.30;;;24.30;91.10;;;;;;6287959;22;20212;-91
2021/01/25 10:18:19;;;;;;;3.50;1.60;;;24.20;91.20;;;;;;6288016;22;20082;-91
2021/01/25 10:20:45;;;;;;;5.63;1.63;;;24.20;91.40;;;;;;6288338;22;20008;-91
2021/01/25 10:23:12;;;;;;;3.13;1.58;;;24.20;91.50;;;;;;6288012;22;19999;-91
2021/01/25 10:25:39;;;;;;;3.60;1.55;;;24.20;91.40;;;;;;6287683;22;20054;-92
2021/01/25 10:28:05;;;;;;;5.05;1.60;;;24.20;91.80;;;;;;6287995;22;20006;-91
2021/01/25 10:30:33;;;;;;;2.67;1.38;;;24.20;91.50;;;;;;6288073;22;19991;-91
2021/01/25 10:33:00;;;;;;;5.85;2.28;;;24.10;91.50;;;;;;6287881;22;20276;-91
2021/01/25 10:35:27;;;;;;;4.13;1.42;;;24.20;91.50;;;;;;6287616;22;19996;-91
2021/01/25 10:37:54;;;;;;;2.20;1.13;;;24.20;91.50;;;;;;6287984;22;20004;-91
2021/01/25 10:40:21;;;;;;;2.03;1.15;;;24.20;91.50;;;;;;6287615;22;19991;-91
2021/01/25 10:42:48;;;;;;;2.08;1.00;;;24.10;91.40;;;;;;6288018;22;20064;-91
2021/01/25 10:45:15;;;;;;;3.65;1.63;;;24.10;91.40;;;;;;6287590;22;20011;-91
2021/01/25 10:47:42;;;;;;;3.30;1.40;;;24.10;91.50;;;;;;6287955;22;20252;-91
2021/01/25 10:50:14;;;;;;;2.97;1.42;;;24.10;91.70;;;;;;6287483;22;19995;-91
2021/01/25 10:52:40;;;;;;;3.45;1.50;;;24.00;91.90;;;;;;6287589;22;20174;-91
2021/01/25 10:55:08;;;;;;;6.60;1.50;;;24.00;92.00;;;;;;6289426;22;20003;-92
2021/01/25 10:57:35;;;;;;;5.85;1.55;;;24.00;92.00;;;;;;6287829;22;20264;-90
2021/01/25 11:00:06;;;;;;;3.33;1.33;;;23.90;92.10;;;;;;6287212;22;20003;-90
2021/01/25 11:02:33;;;;;;;6.15;1.40;;;23.90;92.00;;;;;;6287248;22;20004;-91
2021/01/25 11:05:36;;;;;;;3.60;1.25;;;23.90;92.20;;;;;;6290974;22;20007;-94
2021/01/25 11:08:04;;;;;;;3.15;1.20;;;23.80;92.40;;;;;;6164544;22;20007;-93
2021/01/25 11:10:43;;;;;;;5.65;1.95;;;23.80;92.30;;;;;;6261815;22;19996;-92
2021/01/25 11:13:10;;;;;;;1.88;1.17;;;23.90;92.40;;;;;;6287636;22;20219;-92
2021/01/25 11:19:08;;;;;;;3.90;1.52;;;24.00;92.10;;;;;;6288907;22;19999;-94
2021/01/25 11:21:43;;;;;;;5.20;1.40;;;24.00;92.30;;;;;;6287245;22;20011;-93
2021/01/25 11:24:10;;;;;;;3.40;1.70;;;24.00;92.30;;;;;;6287085;22;19996;-93
2021/01/25 11:26:39;;;;;;;3.78;1.45;;;24.00;92.20;;;;;;6287558;22;19992;-92
2021/01/25 11:29:07;;;;;;;2.85;1.63;;;24.10;91.90;;;;;;6288613;22;20055;-93
2021/01/25 11:31:34;;;;;;;2.20;1.25;;;24.00;92.00;;;;;;6288137;22;19996;-93
2021/01/25 11:34:40;;;;;;;2.03;1.20;;;24.00;92.00;;;;;;6288037;22;20026;-94
2021/01/25 11:37:08;;;;;;;4.32;1.17;;;24.00;91.90;;;;;;6289316;22;20023;-92
2021/01/25 11:39:44;;;;;;;3.65;1.50;;;24.00;91.80;;;;;;6287265;22;20000;-91
2021/01/25 11:42:14;;;;;;;5.72;1.80;;;24.00;91.80;;;;;;6287335;22;20022;-93
2021/01/25 11:44:53;;;;;;;5.85;1.80;;;24.10;91.80;;;;;;6287850;22;20054;-95
2021/01/25 11:47:22;;;;;;;4.75;2.42;;;24.20;91.70;;;;;;6263659;22;20063;-94
2021/01/25 11:49:52;;;;;;;4.32;2.13;;;24.20;91.50;;;;;;6289147;22;20034;-90
2021/01/25 11:52:22;;;;;;;4.30;1.63;;;24.30;91.50;;;;;;6288745;22;20016;-94
2021/01/25 11:54:48;;;;;;;6.53;2.05;;;24.30;91.30;;;;;;6287193;22;20003;-93
2021/01/25 11:57:15;;;;;;;4.30;2.40;;;24.40;91.20;;;;;;6290557;22;20286;-93
2021/01/25 11:59:42;;;;;;;4.30;2.03;;;24.40;91.20;;;;;;6290347;22;20023;-92
2021/01/25 12:02:08;;;;;;;3.47;1.85;;;24.50;91.00;;;;;;6288768;22;20007;-93
2021/01/25 12:05:01;;;;;;;2.53;1.73;;;24.60;91.00;;;;;;6288196;22;20003;-92
2021/01/25 12:07:28;;;;;;;3.60;1.35;;;24.70;90.90;;;;;;6285387;22;19992;-92
2021/01/25 12:09:55;;;;;;;5.15;1.70;;;24.70;90.60;;;;;;6287866;22;20022;-91
2021/01/25 12:12:24;;;;;;;2.60;1.60;;;24.80;90.40;;;;;;6288797;22;20002;-92
2021/01/25 12:14:57;;;;;;;6.35;1.55;;;24.80;90.40;;;;;;6293760;22;20308;-90
2021/01/25 12:17:26;;;;;;;3.35;1.60;;;24.90;90.30;;;;;;6290228;22;20019;-91
2021/01/25 12:19:53;;;;;;;2.97;1.30;;;24.90;90.10;;;;;;6261875;23;20007;-89
2021/01/25 12:22:29;;;;;;;3.33;1.60;;;24.90;90.00;;;;;;6235405;23;20043;-91
2021/01/25 12:24:56;;;;;;;4.80;1.65;;;25.00;90.30;;;;;;6260925;23;20004;-92
2021/01/25 12:27:22;;;;;;;6.07;1.33;;;25.00;90.10;;;;;;6233941;23;19988;-92
2021/01/25 12:29:49;;;;;;;4.88;1.45;;;25.10;90.20;;;;;;6235278;23;19996;-91
2021/01/25 12:32:16;;;;;;;3.25;1.52;;;25.20;90.30;;;;;;6231729;23;20281;-92
2021/01/25 12:35:07;;;;;;;7.07;2.72;;;25.30;90.00;;;;;;6229686;23;20007;-91
2021/01/25 12:37:34;;;;;;;5.22;2.28;;;25.40;90.10;;;;;;6230163;23;20193;-91
2021/01/25 12:40:00;;;;;;;5.22;1.90;;;25.50;90.00;;;;;;6229909;23;20007;-91
2021/01/25 12:42:29;;;;;;;3.45;1.65;;;25.60;89.60;;;;;;6229736;23;20000;-90
2021/01/25 12:44:56;;;;;;;7.38;1.58;;;25.70;89.90;;;;;;6255946;23;20034;-90
2021/01/25 12:47:25;;;;;;;4.47;1.70;;;25.80;88.50;;;;;;6230786;23;19992;-90
2021/01/25 12:49:52;;;;;;;5.05;1.73;;;26.00;88.70;;;;;;6233085;23;19992;-92
2021/01/25 12:52:30;;;;;;;4.15;2.00;;;26.00;88.10;;;;;;6231726;23;20240;-93
2021/01/25 12:54:57;;;;;;;5.05;1.95;;;26.00;88.10;;;;;;6230302;23;20008;-92
2021/01/25 12:57:23;;;;;;;3.17;1.50;;;26.10;88.50;;;;;;6274587;22;20011;-89
2021/01/25 12:59:52;;;;;;;3.53;1.80;;;26.20;88.60;;;;;;6289569;22;20014;-91
2021/01/25 13:02:19;;;;;;;3.53;1.48;;;26.10;88.30;;;;;;6288360;22;20091;-92
2021/01/25 13:04:45;;;;;;;6.40;1.75;;;26.20;87.70;;;;;;6288799;22;20006;-93
2021/01/25 13:07:15;;;;;;;3.60;1.40;;;26.20;86.90;;;;;;6289364;22;20268;-92
2021/01/25 13:09:49;;;;;;;3.45;1.83;;;26.30;86.80;;;;;;6288959;22;20340;-91
2021/01/25 13:12:25;;;;;;;3.45;1.60;;;26.30;88.00;;;;;;6289366;22;20280;-90
2021/01/25 13:14:52;;;;;;;3.30;1.20;;;26.40;86.50;;;;;;6289976;22;19999;-92
2021/01/25 13:17:20;;;;;;;3.08;1.80;;;26.60;84.40;;;;;;6294854;22;19999;-92
2021/01/25 13:19:52;;;;;;;7.82;1.75;;;26.70;86.10;;;;;;6295226;22;20079;-90
2021/01/25 13:22:22;;;;;;;3.65;1.52;;;26.80;85.10;;;;;;6266905;22;20016;-94
2021/01/25 13:24:50;;;;;;;3.88;1.80;;;27.00;85.00;;;;;;6295931;22;20006;-90
2021/01/25 13:27:17;;;;;;;4.15;1.30;;;27.10;83.50;;;;;;6296582;22;19988;-90
2021/01/25 13:29:43;;;;;;;2.90;1.08;;;27.20;83.60;;;;;;6296727;22;19984;-90
2021/01/25 13:33:13;;;;;;;2.70;1.40;;;27.30;81.90;;;;;;6297212;22;20017;-93
2021/01/25 13:35:40;;;;;;;5.80;1.60;;;27.60;81.90;;;;;;6169254;22;20021;-89
2021/01/25 13:38:07;;;;;;;6.85;1.70;;;27.80;82.70;;;;;;6299599;22;20010;-90
2021/01/25 13:41:26;;;;;;;3.95;1.58;;;27.90;81.90;;;;;;6298734;22;19995;-92
2021/01/25 13:43:53;;;;;;;3.42;1.30;;;28.20;80.00;;;;;;6289798;22;20007;-91
2021/01/25 13:46:22;;;;;;;4.30;1.38;;;28.20;79.70;;;;;;6295734;22;20046;-93
2021/01/25 13:48:48;;;;;;;3.28;1.30;;;28.30;80.60;;;;;;6299600;22;20042;-90
2021/01/25 13:51:27;;;;;;;3.05;1.42;;;28.20;78.80;;;;;;6302182;22;20007;-93
2021/01/25 13:53:53;;;;;;;4.45;1.85;;;28.50;81.70;;;;;;6300938;22;20046;-91
2021/01/25 13:56:20;;;;;;;5.05;1.30;;;28.70;81.50;;;;;;6300048;22;20006;-90
2021/01/25 13:59:24;;;;;;;3.40;1.58;;;28.90;79.40;;;;;;6298926;22;19999;-93
2021/01/25 14:02:23;;;;;;;2.63;1.33;;;29.10;80.10;;;;;;6324325;22;20011;-91